Adak, Alaska
Current Conditions -  °F | °C
As of 9:36 AM on Friday 24 Oct 2014 (Local Time) from PADK Reporting Station
Overcast Overcast  
Wind Chill: 37°   Ceiling: 500
Heat Index: 43°   Visibility: NA
Dew Point: 37°   Wind: 9mph
Humidity: 81%   Direction: 360°N
Pressure: 30.06"   Gusts: NA
Location:  51.88°N, 176.66°W
Report Text: PADK 241836Z AUTO 36008KT BKN005 BKN009 OVC013 06/03 A3006 RMK AO1
Loading
Personal Weather Stations






























Interactive Weather Map
Tropical Storm Tracking
New forecast layout! Learn more

10-Day Weather Forecast

Advertisements
Track Severe Weather on mobile